PGUA/UAM METAR and TAF weather

Enter ICAO airport designator
Station Type Date Time Source
PGUA METAR 2018/12/17 02:56 UTC NOAA

PGUA 170256Z 09011KT 10SM SCT009 SCT026 BKN035 BKN130 27/25 A2982 RMK AO2A SLP088 T02680253 57018 PWINO $


Station Type Date Time Source
PGUA Decoded METAR 2018/12/17 02:56 UTC NOAA

Andersen, Mariana Is, Andersen Air Force Base, GU, United States (PGUA) 13-35N 144-56E 187M
Dec 16, 2018 - 09:56 PM EST / 2018.12.17 0256 UTC
Wind: from the E (090 degrees) at 13 MPH (11 KT):0
Visibility: 10 mile(s):0
Sky conditions: mostly cloudy
Temperature: 80.2 F (26.8 C)
Dew Point: 77.5 F (25.3 C)
Relative Humidity: 91%
Pressure (altimeter): 29.82 in. Hg (1009 hPa)
Pressure tendency: 0.05 inches (1.8 hPa) lower than three hours ago
ob: PGUA 170256Z 09011KT 10SM SCT009 SCT026 BKN035 BKN130 27/25 A2982 RMK AO2A SLP088 T02680253 57018 PWINO
cycle: 3

Station Type Date Time Source
PGUA TAF 2018/12/17 03:17 UTC NOAA

TAF
AMD PGUA 170309Z 1703/1808 08015KT 9000 -SHRA SCT015 BKN020 QNH2975INS
TEMPO 1703/1706 9999 VCTS BKN009CB
TEMPO 1712/1715 8000 -TSRA BKN007CB TX28/1705Z TN25/1721Z


Example: see airport list